createdAt,value
2018-06-24T00:00:51.070Z,0.00
2018-06-24T00:01:51.071Z,0.00
2018-06-24T00:02:51.070Z,0.00
2018-06-24T00:03:51.063Z,0.00
2018-06-24T00:04:51.058Z,0.00
2018-06-24T00:05:51.059Z,0.00
2018-06-24T00:06:51.052Z,0.00
2018-06-24T00:07:51.049Z,0.00
2018-06-24T00:08:51.046Z,0.00
2018-06-24T00:09:51.042Z,0.00
2018-06-24T00:10:51.040Z,0.00
2018-06-24T00:11:51.040Z,0.00
2018-06-24T00:12:51.036Z,0.00
2018-06-24T00:13:51.096Z,0.00
2018-06-24T00:14:51.028Z,0.00
2018-06-24T00:15:51.032Z,0.00
2018-06-24T00:16:51.020Z,0.00
2018-06-24T00:17:51.020Z,0.00
2018-06-24T00:18:51.015Z,0.00
2018-06-24T00:19:51.010Z,0.00
2018-06-24T00:20:51.012Z,0.00
2018-06-24T00:21:51.005Z,0.00
2018-06-24T00:22:51.003Z,0.00
2018-06-24T00:23:51.002Z,0.00
2018-06-24T00:24:50.996Z,0.00
2018-06-24T00:25:50.995Z,0.00
2018-06-24T00:26:50.990Z,0.00
2018-06-24T00:27:50.988Z,0.00
2018-06-24T00:28:50.980Z,0.00
2018-06-24T00:29:50.982Z,0.00
2018-06-24T00:30:50.978Z,0.00
2018-06-24T00:31:50.975Z,0.00
2018-06-24T00:32:50.971Z,0.00
2018-06-24T00:33:50.969Z,0.00
2018-06-24T00:34:50.963Z,0.00
2018-06-24T00:35:51.006Z,0.00
2018-06-24T00:36:50.957Z,0.00
2018-06-24T00:37:50.954Z,0.00
2018-06-24T00:38:50.952Z,0.00
2018-06-24T00:39:50.950Z,0.00
2018-06-24T00:40:50.944Z,0.00
2018-06-24T00:41:50.943Z,0.00
2018-06-24T00:42:50.938Z,0.00
2018-06-24T00:43:50.936Z,0.00
2018-06-24T00:44:51.019Z,0.00
2018-06-24T00:45:50.961Z,0.00
2018-06-24T00:46:50.926Z,0.00
2018-06-24T00:47:50.925Z,0.00
2018-06-24T00:48:50.917Z,0.00
2018-06-24T00:49:50.922Z,0.00
2018-06-24T00:50:50.912Z,0.00
2018-06-24T00:51:50.908Z,0.00
2018-06-24T00:52:50.907Z,0.00
2018-06-24T00:53:50.902Z,0.00
2018-06-24T00:54:50.898Z,0.00
2018-06-24T00:55:50.913Z,0.00
2018-06-24T00:56:50.893Z,0.00
2018-06-24T00:57:50.922Z,0.00
2018-06-24T00:58:50.888Z,0.00
2018-06-24T00:59:50.896Z,0.00
2018-06-24T01:00:50.877Z,0.00
2018-06-24T01:01:50.875Z,0.00
2018-06-24T01:02:50.873Z,0.00
2018-06-24T01:03:50.866Z,0.00
2018-06-24T01:04:50.866Z,0.00
2018-06-24T01:05:50.862Z,0.00
2018-06-24T01:06:50.859Z,0.00
2018-06-24T01:07:50.854Z,0.00
2018-06-24T01:08:50.850Z,0.00
2018-06-24T01:09:50.848Z,0.00
2018-06-24T01:10:50.844Z,0.00
2018-06-24T01:11:50.842Z,0.00
2018-06-24T01:12:50.836Z,0.00
2018-06-24T01:13:50.833Z,0.00
2018-06-24T01:14:50.829Z,0.00
2018-06-24T01:15:50.831Z,0.00
2018-06-24T01:16:50.822Z,0.00
2018-06-24T01:17:50.818Z,0.00
2018-06-24T01:18:50.814Z,0.00
2018-06-24T01:19:50.810Z,0.00
2018-06-24T01:20:50.820Z,0.00
2018-06-24T01:21:50.804Z,0.00
2018-06-24T01:22:50.800Z,0.00
2018-06-24T01:23:50.796Z,0.00
2018-06-24T01:24:50.793Z,0.00
2018-06-24T01:25:50.790Z,0.00
2018-06-24T01:26:50.788Z,0.00
2018-06-24T01:27:50.788Z,0.00
2018-06-24T01:28:50.779Z,0.00
2018-06-24T01:29:50.776Z,0.00
2018-06-24T01:30:50.772Z,0.00
2018-06-24T01:31:50.771Z,0.00
2018-06-24T01:32:50.764Z,0.00
2018-06-24T01:33:50.761Z,0.00
2018-06-24T01:34:50.760Z,0.00
2018-06-24T01:35:50.755Z,0.00
2018-06-24T01:36:50.752Z,0.00
2018-06-24T01:37:50.747Z,0.00
2018-06-24T01:38:50.744Z,0.00
2018-06-24T01:39:50.741Z,0.00
2018-06-24T01:40:50.736Z,0.00
2018-06-24T01:41:50.732Z,0.00
2018-06-24T01:42:50.727Z,0.00
2018-06-24T01:43:50.726Z,0.00
2018-06-24T01:44:50.723Z,0.00
2018-06-24T01:45:50.720Z,0.00
2018-06-24T01:46:50.715Z,0.00
2018-06-24T01:47:50.710Z,0.00
2018-06-24T01:48:50.707Z,0.00
2018-06-24T01:49:50.702Z,0.00
2018-06-24T01:50:50.699Z,0.00
2018-06-24T01:51:50.697Z,0.00
2018-06-24T01:52:50.697Z,0.00
2018-06-24T01:53:50.688Z,0.00
2018-06-24T01:54:50.684Z,0.00
2018-06-24T01:55:50.685Z,0.00
2018-06-24T01:56:50.678Z,0.00
2018-06-24T01:57:50.674Z,0.00
2018-06-24T01:58:50.671Z,0.00
2018-06-24T01:59:50.669Z,0.00
2018-06-24T02:00:50.663Z,0.00
2018-06-24T02:01:50.659Z,0.00
2018-06-24T02:02:50.654Z,0.00
2018-06-24T02:03:50.650Z,0.00
2018-06-24T02:04:50.647Z,0.00
2018-06-24T02:05:50.642Z,0.00
2018-06-24T02:06:50.641Z,0.00
2018-06-24T02:07:50.635Z,0.00
2018-06-24T02:08:50.631Z,0.00
2018-06-24T02:09:50.627Z,0.00
2018-06-24T02:10:50.624Z,0.00
2018-06-24T02:11:50.623Z,0.00
2018-06-24T02:12:50.615Z,0.00
2018-06-24T02:13:50.613Z,0.00
2018-06-24T02:14:50.609Z,0.00
2018-06-24T02:15:50.606Z,0.00
2018-06-24T02:16:50.600Z,0.00
2018-06-24T02:17:50.597Z,0.00
2018-06-24T02:18:50.594Z,0.00
2018-06-24T02:19:50.590Z,0.00
2018-06-24T02:20:50.586Z,0.00
2018-06-24T02:21:50.585Z,0.00
2018-06-24T02:22:50.579Z,0.00
2018-06-24T02:23:50.576Z,0.00
2018-06-24T02:24:50.571Z,0.00
2018-06-24T02:25:50.572Z,0.00
2018-06-24T02:26:50.569Z,0.00
2018-06-24T02:27:50.560Z,0.00
2018-06-24T02:28:50.557Z,0.00
2018-06-24T02:29:50.554Z,0.00
2018-06-24T02:30:50.549Z,0.00
2018-06-24T02:31:50.548Z,0.00
2018-06-24T02:32:50.544Z,0.00
2018-06-24T02:33:50.540Z,0.00
2018-06-24T02:34:50.532Z,0.00
2018-06-24T02:35:50.530Z,0.00
2018-06-24T02:36:50.524Z,0.00
2018-06-24T02:37:50.523Z,4.00
2018-06-24T02:38:50.529Z,4.00
2018-06-24T02:39:50.517Z,4.00
2018-06-24T02:40:50.510Z,0.00
2018-06-24T02:41:50.505Z,0.00
2018-06-24T02:42:50.501Z,0.00
2018-06-24T02:43:50.501Z,0.00
2018-06-24T02:44:50.495Z,4.00
2018-06-24T02:45:50.492Z,4.00
2018-06-24T02:46:50.487Z,4.00
2018-06-24T02:47:50.482Z,0.00
2018-06-24T02:48:50.479Z,4.00
2018-06-24T02:49:50.481Z,4.00
2018-06-24T02:50:50.473Z,4.00
2018-06-24T02:51:50.468Z,4.00
2018-06-24T02:52:50.466Z,8.00
2018-06-24T02:53:50.464Z,4.00
2018-06-24T02:54:50.457Z,8.00
2018-06-24T02:55:50.456Z,8.00
2018-06-24T02:56:50.454Z,8.00
2018-06-24T02:57:50.451Z,12.00
2018-06-24T02:58:50.439Z,12.00
2018-06-24T02:59:50.439Z,12.00
2018-06-24T03:00:50.434Z,16.00
2018-06-24T03:01:50.433Z,16.00
2018-06-24T03:02:50.425Z,16.00
2018-06-24T03:03:50.424Z,20.00
2018-06-24T03:04:50.425Z,24.00
2018-06-24T03:05:50.414Z,24.00
2018-06-24T03:06:50.410Z,28.00
2018-06-24T03:07:50.408Z,32.00
2018-06-24T03:08:50.403Z,36.00
2018-06-24T03:09:50.398Z,36.00
2018-06-24T03:10:50.396Z,40.00
2018-06-24T03:11:50.392Z,44.00
2018-06-24T03:12:50.392Z,48.00
2018-06-24T03:13:50.384Z,56.00
2018-06-24T03:14:50.381Z,60.00
2018-06-24T03:15:50.382Z,64.00
2018-06-24T03:16:50.375Z,72.00
2018-06-24T03:17:50.369Z,80.00
2018-06-24T03:18:50.367Z,88.00
2018-06-24T03:19:50.362Z,92.00
2018-06-24T03:20:50.360Z,104.00
2018-06-24T03:21:50.356Z,108.00
2018-06-24T03:22:50.353Z,116.00
2018-06-24T03:23:50.346Z,128.00
2018-06-24T03:24:50.345Z,136.00
2018-06-24T03:25:50.339Z,144.00
2018-06-24T03:26:50.335Z,152.00
2018-06-24T03:27:50.331Z,164.00
2018-06-24T03:28:50.327Z,180.00
2018-06-24T03:29:50.324Z,200.00
2018-06-24T03:30:50.321Z,220.00
2018-06-24T03:31:50.319Z,236.00
2018-06-24T03:32:50.315Z,256.00
2018-06-24T03:33:50.308Z,280.00
2018-06-24T03:34:50.305Z,300.00
2018-06-24T03:35:50.303Z,320.00
2018-06-24T03:36:50.300Z,348.00
2018-06-24T03:37:50.294Z,368.00
2018-06-24T03:38:50.293Z,392.00
2018-06-24T03:39:50.287Z,412.00
2018-06-24T03:40:50.284Z,436.00
2018-06-24T03:41:50.282Z,452.00
2018-06-24T03:42:50.277Z,476.00
2018-06-24T03:43:50.271Z,492.00
2018-06-24T03:44:50.270Z,508.00
2018-06-24T03:45:50.264Z,528.00
2018-06-24T03:46:50.263Z,552.00
2018-06-24T03:47:50.258Z,576.00
2018-06-24T03:48:50.253Z,592.00
2018-06-24T03:49:50.249Z,608.00
2018-06-24T03:50:50.248Z,632.00
2018-06-24T03:51:50.245Z,672.00
2018-06-24T03:52:50.239Z,708.00
2018-06-24T03:53:50.238Z,728.00
2018-06-24T03:54:50.232Z,736.00
2018-06-24T03:55:50.230Z,736.00
2018-06-24T03:56:50.225Z,736.00
2018-06-24T03:57:50.223Z,740.00
2018-06-24T03:58:50.218Z,744.00
2018-06-24T03:59:50.213Z,752.00
2018-06-24T04:00:50.211Z,764.00
2018-06-24T04:01:50.207Z,776.00
2018-06-24T04:02:50.201Z,780.00
2018-06-24T04:03:50.200Z,776.00
2018-06-24T04:04:50.248Z,796.00
2018-06-24T04:05:50.192Z,824.00
2018-06-24T04:06:50.187Z,860.00
2018-06-24T04:07:50.185Z,884.00
2018-06-24T04:08:50.181Z,904.00
2018-06-24T04:09:50.177Z,920.00
2018-06-24T04:10:50.175Z,936.00
2018-06-24T04:11:50.170Z,948.00
2018-06-24T04:12:50.165Z,976.00
2018-06-24T04:13:50.166Z,1028.00
2018-06-24T04:14:50.161Z,1088.00
2018-06-24T04:15:50.159Z,1144.00
2018-06-24T04:16:50.152Z,1184.00
2018-06-24T04:17:50.148Z,1204.00
2018-06-24T04:18:50.146Z,1240.00
2018-06-24T04:19:50.140Z,1316.00
2018-06-24T04:20:50.136Z,1380.00
2018-06-24T04:21:50.139Z,1428.00
2018-06-24T04:22:50.130Z,1460.00
2018-06-24T04:23:50.127Z,1484.00
2018-06-24T04:24:50.120Z,1516.00
2018-06-24T04:25:50.188Z,1520.00
2018-06-24T04:26:50.127Z,1496.00
2018-06-24T04:27:50.106Z,1484.00
2018-06-24T04:28:50.108Z,1512.00
2018-06-24T04:29:50.105Z,1540.00
2018-06-24T04:30:50.100Z,1580.00
2018-06-24T04:31:50.099Z,1612.00
2018-06-24T04:32:50.095Z,1640.00
2018-06-24T04:33:50.090Z,1700.00
2018-06-24T04:34:50.088Z,1736.00
2018-06-24T04:35:50.082Z,1744.00
2018-06-24T04:36:50.076Z,1764.00
2018-06-24T04:37:50.075Z,1844.00
2018-06-24T04:38:50.074Z,1904.00
2018-06-24T04:39:50.070Z,1956.00
2018-06-24T04:40:50.064Z,1992.00
2018-06-24T04:41:50.062Z,2024.00
2018-06-24T04:42:50.059Z,2068.00
2018-06-24T04:43:50.055Z,2140.00
2018-06-24T04:44:50.050Z,2264.00
2018-06-24T04:45:50.050Z,2380.00
2018-06-24T04:46:50.048Z,2532.00
2018-06-24T04:47:50.041Z,2608.00
2018-06-24T04:48:50.040Z,2608.00
2018-06-24T04:49:50.039Z,2660.00
2018-06-24T04:50:50.032Z,2760.00
2018-06-24T04:51:50.027Z,2800.00
2018-06-24T04:52:50.023Z,2820.00
2018-06-24T04:53:50.020Z,2848.00
2018-06-24T04:54:50.018Z,2964.00
2018-06-24T04:55:50.019Z,3064.00
2018-06-24T04:56:50.014Z,3064.00
2018-06-24T04:57:50.013Z,3128.00
2018-06-24T04:58:50.004Z,3204.00
2018-06-24T04:59:49.998Z,3288.00
2018-06-24T05:00:49.999Z,3388.00
2018-06-24T05:01:49.997Z,3440.00
2018-06-24T05:02:49.990Z,3516.00
2018-06-24T05:03:49.986Z,3596.00
2018-06-24T05:04:49.981Z,3704.00
2018-06-24T05:05:49.980Z,3836.00
2018-06-24T05:06:49.982Z,4028.00
2018-06-24T05:07:49.977Z,4108.00
2018-06-24T05:08:49.974Z,4120.00
2018-06-24T05:09:49.972Z,4316.00
2018-06-24T05:10:49.967Z,4584.00
2018-06-24T05:11:49.963Z,4808.00
2018-06-24T05:12:49.960Z,4952.00
2018-06-24T05:13:49.955Z,4972.00
2018-06-24T05:14:49.949Z,4872.00
2018-06-24T05:15:49.953Z,4672.00
2018-06-24T05:16:49.947Z,4412.00
2018-06-24T05:17:49.945Z,4132.00
2018-06-24T05:18:49.940Z,3892.00
2018-06-24T05:19:49.944Z,3668.00
2018-06-24T05:20:49.932Z,3556.00
2018-06-24T05:21:49.936Z,3532.00
2018-06-24T05:22:49.928Z,3560.00
2018-06-24T05:23:49.922Z,3588.00
2018-06-24T05:24:49.921Z,3524.00
2018-06-24T05:25:49.916Z,3528.00
2018-06-24T05:26:49.920Z,3464.00
2018-06-24T05:27:49.913Z,3376.00
2018-06-24T05:28:49.906Z,3340.00
2018-06-24T05:29:49.906Z,3308.00
2018-06-24T05:30:49.903Z,3304.00
2018-06-24T05:31:49.900Z,3308.00
2018-06-24T05:32:49.897Z,3280.00
2018-06-24T05:33:49.893Z,3240.00
2018-06-24T05:34:49.892Z,3208.00
2018-06-24T05:35:49.889Z,3176.00
2018-06-24T05:36:49.884Z,3136.00
2018-06-24T05:37:49.895Z,3060.00
2018-06-24T05:38:49.882Z,3076.00
2018-06-24T05:39:49.878Z,3136.00
2018-06-24T05:40:49.873Z,3204.00
2018-06-24T05:41:49.874Z,3312.00
2018-06-24T05:42:49.910Z,3436.00
2018-06-24T05:43:49.866Z,3544.00
2018-06-24T05:44:49.864Z,3724.00
2018-06-24T05:45:49.860Z,3892.00
2018-06-24T05:46:49.856Z,3988.00
2018-06-24T05:47:49.854Z,3984.00
2018-06-24T05:48:49.876Z,3936.00
2018-06-24T05:49:49.848Z,3948.00
2018-06-24T05:50:49.846Z,4048.00
2018-06-24T05:51:49.842Z,4168.00
2018-06-24T05:52:49.840Z,4320.00
2018-06-24T05:53:49.837Z,4456.00
2018-06-24T05:54:49.833Z,4524.00
2018-06-24T05:55:49.833Z,4636.00
2018-06-24T05:56:49.828Z,4736.00
2018-06-24T05:57:49.825Z,4776.00
2018-06-24T05:58:49.825Z,4840.00
2018-06-24T05:59:49.822Z,4888.00
2018-06-24T06:00:49.819Z,4872.00
2018-06-24T06:01:49.816Z,4888.00
2018-06-24T06:02:49.827Z,4872.00
2018-06-24T06:03:49.810Z,4944.00
2018-06-24T06:04:49.808Z,5044.00
2018-06-24T06:05:49.805Z,5116.00
2018-06-24T06:06:49.803Z,5164.00
2018-06-24T06:07:49.800Z,5180.00
2018-06-24T06:08:49.798Z,5244.00
2018-06-24T06:09:49.794Z,5400.00
2018-06-24T06:10:49.809Z,5496.00
2018-06-24T06:11:49.792Z,5556.00
2018-06-24T06:12:49.792Z,5604.00
2018-06-24T06:13:49.786Z,5548.00
2018-06-24T06:14:49.784Z,5440.00
2018-06-24T06:15:49.783Z,5320.00
2018-06-24T06:16:49.797Z,5284.00
2018-06-24T06:17:49.776Z,5336.00
2018-06-24T06:18:49.776Z,5388.00
2018-06-24T06:19:49.773Z,5464.00
2018-06-24T06:20:49.769Z,5544.00
2018-06-24T06:21:49.833Z,5644.00
2018-06-24T06:22:49.767Z,5804.00
2018-06-24T06:23:49.766Z,5924.00
2018-06-24T06:24:49.765Z,6116.00
2018-06-24T06:25:49.760Z,6260.00
2018-06-24T06:26:49.760Z,6416.00
2018-06-24T06:27:49.756Z,6768.00
2018-06-24T06:28:49.758Z,7020.00
2018-06-24T06:29:49.755Z,7276.00
2018-06-24T06:30:49.756Z,7344.00
2018-06-24T06:31:49.749Z,7232.00
2018-06-24T06:32:49.747Z,7156.00
2018-06-24T06:33:49.744Z,7172.00
2018-06-24T06:34:49.748Z,7052.00
2018-06-24T06:35:49.743Z,6680.00
2018-06-24T06:36:49.779Z,6320.00
2018-06-24T06:37:49.737Z,6100.00
2018-06-24T06:38:49.736Z,5908.00
2018-06-24T06:39:49.735Z,5816.00
2018-06-24T06:40:49.738Z,5696.00
2018-06-24T06:41:49.732Z,5508.00
2018-06-24T06:42:49.730Z,5604.00
2018-06-24T06:43:49.729Z,5832.00
2018-06-24T06:44:49.728Z,6120.00
2018-06-24T06:45:49.873Z,6348.00
2018-06-24T06:46:49.724Z,6528.00
2018-06-24T06:47:49.722Z,6436.00
2018-06-24T06:48:49.718Z,6340.00
2018-06-24T06:49:49.718Z,6220.00
2018-06-24T06:50:49.718Z,6072.00
2018-06-24T06:51:49.719Z,6088.00
2018-06-24T06:52:49.713Z,6192.00
2018-06-24T06:53:49.711Z,6264.00
2018-06-24T06:54:49.711Z,6464.00
2018-06-24T06:55:49.726Z,6692.00
2018-06-24T06:56:49.707Z,6820.00
2018-06-24T06:57:49.740Z,6868.00
2018-06-24T06:58:49.708Z,6980.00
2018-06-24T06:59:49.705Z,7136.00
2018-06-24T07:00:49.704Z,7128.00
2018-06-24T07:01:49.702Z,6968.00
2018-06-24T07:02:49.698Z,6848.00
2018-06-24T07:03:49.701Z,6700.00
2018-06-24T07:04:49.700Z,6620.00
2018-06-24T07:05:49.708Z,6612.00
2018-06-24T07:06:49.697Z,6660.00
2018-06-24T07:07:49.695Z,6620.00
2018-06-24T07:08:49.695Z,6628.00
2018-06-24T07:09:49.692Z,6684.00
2018-06-24T07:10:49.691Z,6696.00
2018-06-24T07:11:49.689Z,6680.00
2018-06-24T07:12:49.687Z,6656.00
2018-06-24T07:13:49.686Z,6684.00
2018-06-24T07:14:49.684Z,6792.00
2018-06-24T07:15:49.691Z,6936.00
2018-06-24T07:16:49.684Z,7092.00
2018-06-24T07:17:49.682Z,7192.00
2018-06-24T07:18:49.682Z,7268.00
2018-06-24T07:19:49.681Z,7372.00
2018-06-24T07:20:49.680Z,7584.00
2018-06-24T07:21:49.677Z,7824.00
2018-06-24T07:22:49.677Z,8076.00
2018-06-24T07:23:49.677Z,8300.00
2018-06-24T07:24:49.678Z,8456.00
2018-06-24T07:25:49.674Z,8484.00
2018-06-24T07:26:49.673Z,8376.00
2018-06-24T07:27:49.713Z,8240.00
2018-06-24T07:28:49.670Z,8140.00
2018-06-24T07:29:49.675Z,8064.00
2018-06-24T07:30:49.670Z,7984.00
2018-06-24T07:31:49.670Z,7892.00
2018-06-24T07:32:49.667Z,7784.00
2018-06-24T07:33:49.797Z,7668.00
2018-06-24T07:34:49.666Z,7620.00
2018-06-24T07:35:49.667Z,7616.00
2018-06-24T07:36:49.663Z,7632.00
2018-06-24T07:37:49.665Z,7660.00
2018-06-24T07:38:49.668Z,7640.00
2018-06-24T07:39:49.660Z,7664.00
2018-06-24T07:40:49.661Z,7732.00
2018-06-24T07:41:49.660Z,7840.00
2018-06-24T07:42:49.663Z,7944.00
2018-06-24T07:43:49.661Z,7976.00
2018-06-24T07:44:49.657Z,7984.00
2018-06-24T07:45:49.657Z,7976.00
2018-06-24T07:46:49.672Z,8008.00
2018-06-24T07:47:49.659Z,8120.00
2018-06-24T07:48:49.657Z,8276.00
2018-06-24T07:49:49.655Z,8360.00
2018-06-24T07:50:49.654Z,8360.00
2018-06-24T07:51:49.655Z,8320.00
2018-06-24T07:52:49.655Z,8184.00
2018-06-24T07:53:49.654Z,8188.00
2018-06-24T07:54:49.655Z,8264.00
2018-06-24T07:55:49.651Z,8452.00
2018-06-24T07:56:49.650Z,8776.00
2018-06-24T07:57:49.649Z,9244.00
2018-06-24T07:58:49.650Z,9748.00
2018-06-24T07:59:49.650Z,10228.00
2018-06-24T08:00:49.655Z,10440.00
2018-06-24T08:01:49.652Z,10508.00
2018-06-24T08:02:49.649Z,10532.00
2018-06-24T08:03:49.649Z,10588.00
2018-06-24T08:04:49.651Z,10640.00
2018-06-24T08:05:49.648Z,10704.00
2018-06-24T08:06:49.654Z,10612.00
2018-06-24T08:07:49.650Z,10428.00
2018-06-24T08:08:49.647Z,10148.00
2018-06-24T08:09:49.646Z,9864.00
2018-06-24T08:10:49.648Z,9604.00
2018-06-24T08:11:49.646Z,9304.00
2018-06-24T08:12:49.645Z,8988.00
2018-06-24T08:13:49.644Z,8716.00
2018-06-24T08:14:49.647Z,8520.00
2018-06-24T08:15:49.645Z,8416.00
2018-06-24T08:16:49.647Z,8396.00
2018-06-24T08:17:49.646Z,8436.00
2018-06-24T08:18:49.647Z,8616.00
2018-06-24T08:19:49.644Z,8868.00
2018-06-24T08:20:49.645Z,9068.00
2018-06-24T08:21:49.646Z,9288.00
2018-06-24T08:22:49.668Z,9392.00
2018-06-24T08:23:49.646Z,9428.00
2018-06-24T08:24:49.644Z,9416.00
2018-06-24T08:25:49.646Z,9408.00
2018-06-24T08:26:49.646Z,9388.00
2018-06-24T08:27:49.644Z,9396.00
2018-06-24T08:28:49.645Z,9432.00
2018-06-24T08:29:49.647Z,9520.00
2018-06-24T08:30:49.646Z,9668.00
2018-06-24T08:31:49.645Z,9672.00
2018-06-24T08:32:49.644Z,9556.00
2018-06-24T08:33:49.643Z,9516.00
2018-06-24T08:34:49.646Z,9604.00
2018-06-24T08:35:49.644Z,9832.00
2018-06-24T08:36:49.645Z,10040.00
2018-06-24T08:37:49.642Z,10048.00
2018-06-24T08:38:49.644Z,10020.00
2018-06-24T08:39:49.644Z,10068.00
2018-06-24T08:40:49.644Z,10180.00
2018-06-24T08:41:49.645Z,10176.00
2018-06-24T08:42:49.643Z,10024.00
2018-06-24T08:43:49.644Z,9764.00
2018-06-24T08:44:49.649Z,9524.00
2018-06-24T08:45:49.645Z,9296.00
2018-06-24T08:46:49.646Z,9296.00
2018-06-24T08:47:49.645Z,9444.00
2018-06-24T08:48:49.646Z,9644.00
2018-06-24T08:49:49.645Z,9692.00
2018-06-24T08:50:49.646Z,9500.00
2018-06-24T08:51:49.646Z,9508.00
2018-06-24T08:52:49.645Z,9616.00
2018-06-24T08:53:49.646Z,9072.00
2018-06-24T08:54:49.647Z,8620.00
2018-06-24T08:55:49.649Z,8676.00
2018-06-24T08:56:49.645Z,8592.00
2018-06-24T08:57:49.647Z,8416.00
2018-06-24T08:58:49.647Z,8144.00
2018-06-24T08:59:49.653Z,7908.00
2018-06-24T09:00:49.651Z,7488.00
2018-06-24T09:01:49.650Z,7332.00
2018-06-24T09:02:49.656Z,6996.00
2018-06-24T09:03:49.649Z,7368.00
2018-06-24T09:04:49.648Z,7832.00
2018-06-24T09:05:49.652Z,7896.00
2018-06-24T09:06:49.649Z,7780.00
2018-06-24T09:07:49.652Z,7768.00
2018-06-24T09:08:49.652Z,7824.00
2018-06-24T09:09:49.653Z,7832.00
2018-06-24T09:10:49.651Z,7936.00
2018-06-24T09:11:49.653Z,8020.00
2018-06-24T09:12:49.653Z,8296.00
2018-06-24T09:13:49.655Z,8388.00
2018-06-24T09:14:49.669Z,8088.00
2018-06-24T09:15:49.692Z,7868.00
2018-06-24T09:16:49.655Z,7908.00
2018-06-24T09:17:49.654Z,8028.00
2018-06-24T09:18:49.654Z,8268.00
2018-06-24T09:19:49.656Z,8696.00
2018-06-24T09:20:49.655Z,8952.00
2018-06-24T09:21:49.656Z,9604.00
2018-06-24T09:22:49.656Z,10076.00
2018-06-24T09:23:49.657Z,10908.00
2018-06-24T09:24:49.658Z,11208.00
2018-06-24T09:25:49.660Z,10864.00
2018-06-24T09:26:49.657Z,10668.00
2018-06-24T09:27:49.659Z,10808.00
2018-06-24T09:28:49.660Z,10820.00
2018-06-24T09:29:49.659Z,10676.00
2018-06-24T09:30:49.712Z,10368.00
2018-06-24T09:31:49.662Z,10260.00
2018-06-24T09:32:49.661Z,10092.00
2018-06-24T09:33:49.661Z,10152.00
2018-06-24T09:34:49.663Z,10132.00
2018-06-24T09:35:49.662Z,9728.00
2018-06-24T09:36:49.663Z,9560.00
2018-06-24T09:37:49.666Z,9696.00
2018-06-24T09:38:49.665Z,9716.00
2018-06-24T09:39:49.667Z,9744.00
2018-06-24T09:40:49.667Z,9888.00
2018-06-24T09:41:49.665Z,9884.00
2018-06-24T09:42:49.669Z,9848.00
2018-06-24T09:43:49.691Z,9832.00
2018-06-24T09:44:49.667Z,9848.00
2018-06-24T09:45:49.668Z,9928.00
2018-06-24T09:46:49.671Z,9984.00
2018-06-24T09:47:49.671Z,9872.00
2018-06-24T09:48:49.670Z,10136.00
2018-06-24T09:49:49.673Z,10016.00
2018-06-24T09:50:49.675Z,9652.00
2018-06-24T09:51:49.675Z,9616.00
2018-06-24T09:52:49.735Z,9508.00
2018-06-24T09:53:49.675Z,9516.00
2018-06-24T09:54:49.675Z,9836.00
2018-06-24T09:55:49.675Z,10328.00
2018-06-24T09:56:49.676Z,10196.00
2018-06-24T09:57:49.677Z,9944.00
2018-06-24T09:58:49.677Z,9560.00
2018-06-24T09:59:49.678Z,8840.00
2018-06-24T10:00:49.677Z,8488.00
2018-06-24T10:01:49.681Z,8184.00
2018-06-24T10:02:49.684Z,7992.00
2018-06-24T10:03:49.986Z,6968.00
2018-06-24T10:04:49.681Z,6824.00
2018-06-24T10:05:49.682Z,6364.00
2018-06-24T10:06:49.685Z,6052.00
2018-06-24T10:07:49.686Z,5680.00
2018-06-24T10:08:49.684Z,5352.00
2018-06-24T10:09:49.685Z,5096.00
2018-06-24T10:10:49.685Z,5296.00
2018-06-24T10:11:49.687Z,5796.00
2018-06-24T10:12:49.687Z,6600.00
2018-06-24T10:13:49.687Z,7676.00
2018-06-24T10:14:49.689Z,8388.00
2018-06-24T10:15:49.692Z,9312.00
2018-06-24T10:16:49.687Z,10064.00
2018-06-24T10:17:49.689Z,10044.00
2018-06-24T10:18:49.689Z,9236.00
2018-06-24T10:19:49.691Z,8444.00
2018-06-24T10:20:49.689Z,8684.00
2018-06-24T10:21:49.690Z,9128.00
2018-06-24T10:22:49.690Z,9200.00
2018-06-24T10:23:49.693Z,9648.00
2018-06-24T10:24:49.691Z,9408.00
2018-06-24T10:25:49.692Z,9200.00
2018-06-24T10:26:49.694Z,10024.00
2018-06-24T10:27:49.694Z,10440.00
2018-06-24T10:28:49.695Z,10904.00
2018-06-24T10:29:49.695Z,11472.00
2018-06-24T10:30:49.744Z,12612.00
2018-06-24T10:31:49.696Z,13056.00
2018-06-24T10:32:49.696Z,13280.00
2018-06-24T10:33:49.701Z,13120.00
2018-06-24T10:34:49.700Z,13720.00
2018-06-24T10:35:49.700Z,13224.00
2018-06-24T10:36:49.698Z,13060.00
2018-06-24T10:37:49.701Z,14580.00
2018-06-24T10:38:49.703Z,15744.00
2018-06-24T10:39:49.706Z,15872.00
2018-06-24T10:40:49.703Z,15584.00
2018-06-24T10:41:49.702Z,15872.00
2018-06-24T10:42:49.705Z,14156.00
2018-06-24T10:43:49.708Z,12344.00
2018-06-24T10:44:49.705Z,11560.00
2018-06-24T10:45:49.706Z,10840.00
2018-06-24T10:46:49.708Z,9896.00
2018-06-24T10:47:49.710Z,8924.00
2018-06-24T10:48:49.711Z,8000.00
2018-06-24T10:49:49.711Z,7544.00
2018-06-24T10:50:49.713Z,7532.00
2018-06-24T10:51:49.714Z,7816.00
2018-06-24T10:52:49.722Z,8064.00
2018-06-24T10:53:49.716Z,8616.00
2018-06-24T10:54:49.716Z,8308.00
2018-06-24T10:55:49.717Z,8124.00
2018-06-24T10:56:49.721Z,8576.00
2018-06-24T10:57:49.721Z,8956.00
2018-06-24T10:58:49.722Z,9000.00
2018-06-24T10:59:49.724Z,9068.00
2018-06-24T11:00:49.723Z,10080.00
2018-06-24T11:01:49.782Z,11200.00
2018-06-24T11:02:49.726Z,12352.00
2018-06-24T11:03:49.727Z,12588.00
2018-06-24T11:04:49.725Z,12320.00
2018-06-24T11:05:49.726Z,11688.00
2018-06-24T11:06:49.731Z,11908.00
2018-06-24T11:07:49.732Z,12492.00
2018-06-24T11:08:49.731Z,12528.00
2018-06-24T11:09:49.735Z,12556.00
2018-06-24T11:10:49.734Z,12868.00
2018-06-24T11:11:49.734Z,12824.00
2018-06-24T11:12:49.735Z,12840.00
2018-06-24T11:13:49.737Z,13160.00
2018-06-24T11:14:49.737Z,14016.00
2018-06-24T11:15:49.740Z,14684.00
2018-06-24T11:16:49.741Z,15488.00
2018-06-24T11:17:49.740Z,15968.00
2018-06-24T11:18:49.744Z,16672.00
2018-06-24T11:19:49.746Z,17696.00
2018-06-24T11:20:49.745Z,18016.00
2018-06-24T11:21:49.809Z,18944.00
2018-06-24T11:22:49.749Z,19968.00
2018-06-24T11:23:49.750Z,15424.00
2018-06-24T11:24:49.756Z,14356.00
2018-06-24T11:25:49.758Z,13948.00
2018-06-24T11:26:49.755Z,13816.00
2018-06-24T11:27:49.755Z,14124.00
2018-06-24T11:28:49.758Z,15072.00
2018-06-24T11:29:49.759Z,25472.00
2018-06-24T11:30:49.760Z,16704.00
2018-06-24T11:31:49.763Z,14448.00
2018-06-24T11:32:49.765Z,14228.00
2018-06-24T11:33:49.765Z,13872.00
2018-06-24T11:34:49.768Z,13656.00
2018-06-24T11:35:49.769Z,14108.00
2018-06-24T11:36:49.769Z,14124.00
2018-06-24T11:37:49.773Z,31424.00
2018-06-24T11:38:49.777Z,13460.00
2018-06-24T11:39:49.777Z,14284.00
2018-06-24T11:40:49.781Z,22432.00
2018-06-24T11:41:49.782Z,15552.00
2018-06-24T11:42:49.785Z,16992.00
2018-06-24T11:43:49.785Z,16768.00
2018-06-24T11:44:49.788Z,14312.00
2018-06-24T11:45:49.792Z,12672.00
2018-06-24T11:46:49.791Z,13100.00
2018-06-24T11:47:49.834Z,13896.00
2018-06-24T11:48:49.798Z,15872.00
2018-06-24T11:49:49.797Z,16640.00
2018-06-24T11:50:49.799Z,27008.00
2018-06-24T11:51:49.801Z,14304.00
2018-06-24T11:52:49.805Z,13104.00
2018-06-24T11:53:49.810Z,13952.00
2018-06-24T11:54:49.809Z,13896.00
2018-06-24T11:55:49.811Z,14240.00
2018-06-24T11:56:49.866Z,19168.00
2018-06-24T11:57:49.817Z,17728.00
2018-06-24T11:58:49.822Z,18528.00
2018-06-24T11:59:49.820Z,16096.00
2018-06-24T12:00:49.822Z,22144.00
2018-06-24T12:01:49.824Z,18624.00
2018-06-24T12:02:49.826Z,12516.00
2018-06-24T12:03:49.829Z,10440.00
2018-06-24T12:04:49.831Z,9768.00
2018-06-24T12:05:49.831Z,9008.00
2018-06-24T12:06:49.875Z,9012.00
2018-06-24T12:07:49.839Z,8056.00
2018-06-24T12:08:49.839Z,7688.00
2018-06-24T12:09:49.932Z,7808.00
2018-06-24T12:10:49.897Z,8136.00
2018-06-24T12:11:49.847Z,8720.00
2018-06-24T12:12:49.847Z,8732.00
2018-06-24T12:13:49.849Z,8428.00
2018-06-24T12:14:49.855Z,8964.00
2018-06-24T12:15:49.855Z,10016.00
2018-06-24T12:16:49.856Z,10448.00
2018-06-24T12:17:49.857Z,10828.00
2018-06-24T12:18:49.860Z,11228.00
2018-06-24T12:19:49.861Z,11840.00
2018-06-24T12:20:49.861Z,12552.00
2018-06-24T12:21:49.864Z,16192.00